Time;durP1;ratioP1;P1;durP2;ratioP2;P2;SDS_P1;SDS_P2;PMS_P1;PMS_P2;Temp;Humidity;BMP_temperature;BMP_pressure;BME280_temperature;BME280_humidity;BME280_pressure;Samples;Min_cycle;Max_cycle;Signal;HPM_P1;HPM_P2
2022/08/21 00:01:42;;;;;;;7.20;4.50;;;;;;;22.56;96.52;98503.69;4935366;29;20212;-69
2022/08/21 00:04:10;;;;;;;8.33;5.03;;;;;;;22.62;96.08;98492.47;4935556;29;20236;-68
2022/08/21 00:06:38;;;;;;;7.67;4.70;;;;;;;22.59;95.10;98524.13;4935510;29;20256;-68
2022/08/21 00:09:07;;;;;;;7.93;4.20;;;;;;;22.25;95.52;98523.34;4935242;29;20214;-68
2022/08/21 00:11:35;;;;;;;5.93;3.47;;;;;;;22.10;93.05;98509.69;4935157;29;20230;-69
2022/08/21 00:14:03;;;;;;;5.00;2.83;;;;;;;22.00;94.88;98522.28;4935636;29;20264;-68
2022/08/21 00:16:31;;;;;;;6.53;3.33;;;;;;;21.95;95.16;98524.69;4935119;29;20242;-69
2022/08/21 00:18:58;;;;;;;6.10;3.30;;;;;;;21.72;96.88;98515.41;4934823;29;20774;-68
2022/08/21 00:21:25;;;;;;;5.97;3.50;;;;;;;21.52;94.61;98509.34;4935132;29;20227;-69
2022/08/21 00:23:53;;;;;;;5.37;3.20;;;;;;;21.26;96.03;98510.81;4935224;29;20198;-68
2022/08/21 00:26:20;;;;;;;4.53;3.30;;;;;;;21.00;97.76;98512.31;4935159;29;20731;-68
2022/08/21 00:28:48;;;;;;;7.20;3.10;;;;;;;20.83;99.88;98494.59;4934984;29;20215;-67
2022/08/21 00:31:16;;;;;;;4.47;2.80;;;;;;;20.84;97.37;98485.84;4934866;29;20231;-67
2022/08/21 00:33:44;;;;;;;3.90;2.17;;;;;;;21.01;93.97;98477.53;4934986;29;20214;-68
2022/08/21 00:36:12;;;;;;;2.47;1.60;;;;;;;20.96;93.31;98469.50;4934556;29;20221;-68
2022/08/21 00:38:39;;;;;;;1.87;1.40;;;;;;;20.85;92.90;98471.84;4934654;29;20733;-68
2022/08/21 00:41:10;;;;;;;2.17;1.37;;;;;;;20.77;93.79;98472.81;4934080;29;20229;-68
2022/08/21 00:43:39;;;;;;;4.43;1.53;;;;;;;20.73;93.96;98474.19;4934792;29;20203;-68
2022/08/21 00:46:07;;;;;;;2.53;1.50;;;;;;;20.65;92.10;98466.53;4934937;29;20225;-68
2022/08/21 00:48:35;;;;;;;2.50;1.57;;;;;;;20.61;93.51;98465.31;4934764;29;20211;-68
2022/08/21 00:51:07;;;;;;;2.70;1.63;;;;;;;20.63;95.03;98465.94;4934411;29;20230;-68
2022/08/21 00:53:37;;;;;;;2.77;1.73;;;;;;;20.57;95.77;98467.50;4934435;29;20201;-59
2022/08/21 00:56:07;;;;;;;3.63;2.00;;;;;;;20.52;96.01;98472.41;4934385;29;20523;-60
2022/08/21 00:58:35;;;;;;;3.40;1.83;;;;;;;20.66;95.81;98483.75;4934370;29;20232;-59
2022/08/21 01:01:04;;;;;;;3.20;1.87;;;;;;;20.69;96.59;98475.56;4934172;29;20236;-59
2022/08/21 01:03:32;;;;;;;5.13;2.23;;;;;;;20.64;97.53;98454.53;4934442;29;20717;-68
2022/08/21 01:05:59;;;;;;;3.10;1.83;;;;;;;20.61;99.07;98434.94;4934119;29;20240;-67
2022/08/21 01:08:28;;;;;;;4.47;1.83;;;;;;;20.52;99.48;98431.69;4934406;29;20225;-68
2022/08/21 01:10:56;;;;;;;4.93;2.20;;;;;;;20.57;100.00;98439.72;4934092;29;20235;-59
2022/08/21 01:13:25;;;;;;;6.67;2.30;;;;;;;20.70;100.00;98431.19;4934470;29;20208;-68
2022/08/21 01:15:54;;;;;;;3.20;2.03;;;;;;;20.62;100.00;98389.00;4934366;29;20296;-68
2022/08/21 01:18:22;;;;;;;3.90;2.00;;;;;;;20.59;100.00;98384.97;4933991;29;20600;-68
2022/08/21 01:21:09;;;;;;;5.97;1.90;;;;;;;20.69;100.00;98384.66;4934407;29;20236;-68
2022/08/21 01:23:37;;;;;;;4.23;1.90;;;;;;;20.62;100.00;98386.41;4933982;29;20674;-68
2022/08/21 01:26:05;;;;;;;3.50;1.90;;;;;;;20.49;100.00;98369.72;4934019;29;20230;-59
2022/08/21 01:28:37;;;;;;;4.33;2.33;;;;;;;20.55;100.00;98369.00;4934274;29;20221;-59
2022/08/21 01:31:07;;;;;;;2.43;1.83;;;;;;;20.57;100.00;98367.00;4934096;29;20232;-68
2022/08/21 01:33:34;;;;;;;2.30;1.80;;;;;;;20.52;100.00;98358.97;4934001;29;20213;-60
2022/08/21 01:36:01;;;;;;;3.23;1.90;;;;;;;20.45;100.00;98352.13;4934455;29;20606;-59
2022/08/21 01:38:29;;;;;;;3.80;2.10;;;;;;;20.41;100.00;98346.50;4933739;29;20251;-60
2022/08/21 01:40:56;;;;;;;3.47;1.70;;;;;;;20.49;100.00;98368.94;4933839;29;20228;-68
2022/08/21 01:43:23;;;;;;;3.70;1.90;;;;;;;20.60;100.00;98368.41;4933654;29;20212;-60
2022/08/21 01:45:49;;;;;;;3.23;2.03;;;;;;;20.56;100.00;98374.97;4934209;29;20248;-66
2022/08/21 01:48:16;;;;;;;3.30;2.10;;;;;;;20.44;100.00;98372.09;4933810;29;20585;-60
2022/08/21 01:50:43;;;;;;;5.67;2.37;;;;;;;20.47;100.00;98369.09;4934025;29;20232;-60
2022/08/21 01:53:10;;;;;;;4.93;2.50;;;;;;;20.48;100.00;98373.31;4933211;29;20683;-60
2022/08/21 01:55:38;;;;;;;3.20;2.30;;;;;;;20.54;100.00;98372.59;4933849;29;20392;-68
2022/08/21 01:58:05;;;;;;;3.73;2.63;;;;;;;20.66;100.00;98374.66;4933372;29;20727;-68
2022/08/21 02:00:32;;;;;;;3.23;2.13;;;;;;;20.64;100.00;98381.81;4933426;29;20228;-68
2022/08/21 02:02:59;;;;;;;3.83;2.30;;;;;;;20.65;100.00;98381.59;4933199;29;20703;-68
2022/08/21 02:05:26;;;;;;;4.10;2.17;;;;;;;20.69;100.00;98388.03;4933652;29;20590;-68
2022/08/21 02:07:55;;;;;;;3.77;2.10;;;;;;;20.77;100.00;98392.28;4933131;29;20704;-68
2022/08/21 02:10:26;;;;;;;4.53;2.53;;;;;;;20.74;100.00;98397.84;4933042;29;20232;-60
2022/08/21 02:12:54;;;;;;;4.30;1.80;;;;;;;20.69;100.00;98389.84;4933086;29;20198;-68
2022/08/21 02:15:21;;;;;;;3.73;2.30;;;;;;;20.69;100.00;98395.03;4933414;29;20239;-61
2022/08/21 02:17:53;;;;;;;3.93;2.57;;;;;;;20.54;100.00;98388.16;4933618;29;20605;-68
2022/08/21 02:20:23;;;;;;;4.50;2.23;;;;;;;20.47;100.00;98387.28;4933013;29;20244;-60
2022/08/21 02:22:50;;;;;;;3.40;2.03;;;;;;;20.50;100.00;98388.69;4932976;29;20204;-69
2022/08/21 02:25:18;;;;;;;4.40;2.67;;;;;;;20.52;100.00;98384.94;4933074;29;20271;-59
2022/08/21 02:27:47;;;;;;;4.33;2.23;;;;;;;20.52;100.00;98379.75;4932990;29;20512;-59
2022/08/21 02:30:17;;;;;;;5.33;2.73;;;;;;;20.52;100.00;98390.16;4933043;29;20240;-69
2022/08/21 02:32:44;;;;;;;4.20;2.87;;;;;;;20.47;100.00;98387.28;4933041;29;20208;-59
2022/08/21 02:35:12;;;;;;;5.70;2.70;;;;;;;20.44;100.00;98392.06;4933042;29;20250;-67
2022/08/21 02:38:04;;;;;;;5.67;2.87;;;;;;;20.44;100.00;98386.88;4932921;29;20212;-59
2022/08/21 02:40:33;;;;;;;5.80;3.10;;;;;;;20.38;100.00;98385.84;4932939;29;20252;-68
2022/08/21 02:43:01;;;;;;;5.13;2.93;;;;;;;20.35;100.00;98388.81;4932488;29;20207;-59
2022/08/21 02:45:29;;;;;;;6.27;2.77;;;;;;;20.43;100.00;98386.06;4932541;29;20234;-67
2022/08/21 02:47:59;;;;;;;4.33;2.67;;;;;;;20.52;100.00;98410.94;4932458;29;20618;-68
2022/08/21 02:50:29;;;;;;;6.63;3.40;;;;;;;20.50;100.00;98418.06;4932897;29;20240;-59
2022/08/21 02:52:57;;;;;;;5.83;2.93;;;;;;;20.49;100.00;98420.88;4932264;29;20199;-68
2022/08/21 02:55:26;;;;;;;4.93;2.93;;;;;;;20.57;100.00;98429.34;4932829;29;20240;-59
2022/08/21 02:57:54;;;;;;;9.67;3.30;;;;;;;20.49;100.00;98421.66;4932492;29;20208;-68
2022/08/21 03:00:22;;;;;;;5.53;3.27;;;;;;;20.52;100.00;98426.50;4932366;29;20310;-67
2022/08/21 03:02:51;;;;;;;5.10;3.37;;;;;;;20.54;100.00;98432.31;4932195;29;20209;-59
2022/08/21 03:05:18;;;;;;;6.83;3.73;;;;;;;20.61;100.00;98434.16;4931838;29;20235;-68
2022/08/21 03:07:46;;;;;;;4.60;3.20;;;;;;;20.62;100.00;98436.53;4932477;29;20226;-68
2022/08/21 03:10:14;;;;;;;7.37;3.67;;;;;;;20.65;100.00;98423.16;4932312;29;20227;-59
2022/08/21 03:12:41;;;;;;;4.63;2.97;;;;;;;20.65;100.00;98430.16;4932108;29;20205;-59
2022/08/21 03:15:12;;;;;;;6.43;3.43;;;;;;;20.62;100.00;98433.16;4932424;29;20241;-59
2022/08/21 03:17:39;;;;;;;6.37;3.67;;;;;;;20.56;100.00;98426.91;4932194;29;20211;-68
2022/08/21 03:20:09;;;;;;;6.43;3.43;;;;;;;20.55;100.00;98433.91;4932218;29;20239;-59
2022/08/21 03:22:36;;;;;;;5.20;3.17;;;;;;;20.61;100.00;98440.13;4932002;29;20216;-68
2022/08/21 03:25:04;;;;;;;6.43;3.60;;;;;;;20.64;100.00;98444.94;4932494;29;20231;-68
2022/08/21 03:27:31;;;;;;;7.60;3.43;;;;;;;20.68;100.00;98442.78;4932479;29;20207;-68
2022/08/21 03:29:58;;;;;;;6.13;3.00;;;;;;;20.75;100.00;98447.03;4932315;29;20630;-68
2022/08/21 03:32:25;;;;;;;5.37;3.20;;;;;;;20.70;100.00;98448.59;4932194;29;20202;-66
2022/08/21 03:34:52;;;;;;;8.70;3.50;;;;;;;20.70;100.00;98453.78;4932242;29;20226;-59
2022/08/21 03:37:20;;;;;;;5.33;3.07;;;;;;;20.78;100.00;98451.03;4932164;29;20212;-59
2022/08/21 03:39:47;;;;;;;6.23;3.27;;;;;;;20.80;100.00;98449.06;4931888;29;20244;-59
2022/08/21 03:42:14;;;;;;;4.70;3.47;;;;;;;20.82;100.00;98449.63;4932085;29;20214;-59
2022/08/21 03:44:41;;;;;;;4.30;3.00;;;;;;;20.83;100.00;98455.63;4931901;29;20217;-68
2022/08/21 03:47:08;;;;;;;5.53;2.93;;;;;;;20.88;100.00;98469.66;4931944;29;20209;-68
2022/08/21 03:49:34;;;;;;;4.57;3.07;;;;;;;20.86;100.00;98469.06;4932054;29;20203;-59
2022/08/21 03:52:02;;;;;;;6.03;2.90;;;;;;;20.86;100.00;98469.06;4932002;29;20212;-68
2022/08/21 03:54:30;;;;;;;4.30;3.13;;;;;;;20.90;100.00;98472.88;4931932;29;20206;-68
2022/08/21 03:56:57;;;;;;;6.97;2.83;;;;;;;20.91;100.00;98471.88;4931617;29;20594;-68
2022/08/21 03:59:24;;;;;;;6.20;2.97;;;;;;;20.93;100.00;98485.47;4931423;29;20732;-69
2022/08/21 04:01:55;;;;;;;8.47;2.83;;;;;;;20.88;100.00;98482.66;4931757;29;20262;-59
2022/08/21 04:04:22;;;;;;;5.30;3.27;;;;;;;20.89;100.00;98484.28;4931755;29;20213;-59
2022/08/21 04:06:49;;;;;;;5.47;2.90;;;;;;;20.83;100.00;98484.22;4931763;29;20216;-59
2022/08/21 04:09:16;;;;;;;6.60;3.20;;;;;;;20.85;100.00;98487.44;4931438;29;20203;-59
2022/08/21 04:11:45;;;;;;;6.37;3.13;;;;;;;20.88;100.00;98487.84;4931846;29;20224;-59
2022/08/21 04:14:13;;;;;;;4.60;3.00;;;;;;;20.88;100.00;98495.63;4931604;29;20289;-59
2022/08/21 04:16:40;;;;;;;4.20;2.80;;;;;;;20.89;100.00;98496.47;4934229;29;20293;-59
2022/08/21 04:19:08;;;;;;;6.10;3.10;;;;;;;20.92;100.00;98483.88;4934926;29;20216;-68
2022/08/21 04:21:37;;;;;;;5.50;3.20;;;;;;;20.92;100.00;98486.50;4935105;29;20335;-68
2022/08/21 04:24:04;;;;;;;4.77;3.23;;;;;;;20.96;100.00;98482.50;4934810;29;20706;-59
2022/08/21 04:26:31;;;;;;;7.57;3.70;;;;;;;20.97;100.00;98481.53;4934938;29;20225;-59
2022/08/21 04:28:59;;;;;;;5.57;3.30;;;;;;;20.97;100.00;98481.53;4934782;29;20217;-68
2022/08/21 04:31:27;;;;;;;6.03;3.50;;;;;;;21.02;100.00;98486.94;4934972;29;20235;-68
2022/08/21 04:33:54;;;;;;;6.00;3.37;;;;;;;20.99;100.00;98483.91;4934882;29;20233;-59
2022/08/21 04:36:22;;;;;;;7.00;3.50;;;;;;;21.02;100.00;98489.53;4934717;29;20237;-59
2022/08/21 04:38:49;;;;;;;4.90;3.43;;;;;;;21.02;100.00;98486.94;4934776;29;20684;-59
2022/08/21 04:41:16;;;;;;;5.47;3.60;;;;;;;21.02;100.00;98492.13;4934511;29;20740;-59
2022/08/21 04:43:43;;;;;;;5.27;3.00;;;;;;;21.03;100.00;98496.34;4934734;29;20207;-59
2022/08/21 04:46:11;;;;;;;6.77;4.00;;;;;;;21.09;100.00;98489.56;4934770;29;20720;-59
2022/08/21 04:48:38;;;;;;;8.57;3.97;;;;;;;21.11;100.00;98489.38;4934494;29;20304;-59
2022/08/21 04:51:10;;;;;;;6.13;3.53;;;;;;;21.11;100.00;98486.75;4934730;29;20739;-59
2022/08/21 04:53:45;;;;;;;6.00;3.97;;;;;;;21.16;100.00;98494.78;4934427;29;20208;-59
2022/08/21 04:56:15;;;;;;;6.97;3.53;;;;;;;21.26;100.00;98487.44;4934443;29;20230;-59
2022/08/21 04:58:43;;;;;;;7.30;3.93;;;;;;;21.29;100.00;98489.63;4934386;29;20214;-59
2022/08/21 05:01:16;;;;;;;8.20;3.80;;;;;;;21.34;100.00;98492.47;4934210;29;20738;-68
2022/08/21 05:03:44;;;;;;;5.63;3.50;;;;;;;21.38;100.00;98495.50;4934566;29;20552;-68
2022/08/21 05:06:13;;;;;;;6.83;4.07;;;;;;;21.46;100.00;98495.34;4934389;29;20621;-68
2022/08/21 05:08:43;;;;;;;7.77;4.10;;;;;;;21.55;100.00;98503.75;4934317;29;20210;-68
2022/08/21 05:11:10;;;;;;;5.57;3.93;;;;;;;21.56;100.00;98500.19;4934082;29;20226;-68
2022/08/21 05:13:37;;;;;;;6.43;3.90;;;;;;;21.61;100.00;98492.56;4934151;29;20206;-68
2022/08/21 05:16:04;;;;;;;5.30;3.47;;;;;;;21.70;100.00;98494.03;4934111;29;20236;-68
2022/08/21 05:18:33;;;;;;;6.87;4.23;;;;;;;21.78;100.00;98493.00;4934298;29;20246;-68
2022/08/21 05:21:00;;;;;;;6.53;3.50;;;;;;;21.85;100.00;98499.84;4934261;29;20249;-68
2022/08/21 05:23:27;;;;;;;8.80;3.93;;;;;;;21.91;100.00;98491.25;4934023;29;20199;-68
2022/08/21 05:25:55;;;;;;;7.40;4.37;;;;;;;22.03;100.00;98485.44;4934089;29;20235;-68
2022/08/21 05:28:22;;;;;;;6.73;4.03;;;;;;;22.09;99.66;98484.66;4933232;29;20850;-68
2022/08/21 05:30:48;;;;;;;7.70;5.03;;;;;;;22.15;100.00;98483.84;4934028;29;20639;-68
2022/08/21 05:33:15;;;;;;;8.67;5.70;;;;;;;22.20;100.00;98491.91;4933672;29;20221;-68
2022/08/21 05:35:43;;;;;;;9.57;6.03;;;;;;;22.27;100.00;98482.28;4933538;29;20231;-68
2022/08/21 05:38:10;;;;;;;8.27;5.20;;;;;;;22.30;100.00;98487.06;4933752;29;20230;-69
2022/08/21 05:40:37;;;;;;;10.23;5.30;;;;;;;22.39;99.87;98485.06;4933788;29;20250;-67
2022/08/21 05:43:04;;;;;;;7.87;5.13;;;;;;;22.43;99.66;98491.50;4933578;29;20207;-68
2022/08/21 05:45:33;;;;;;;10.40;6.30;;;;;;;22.58;99.84;98475.63;4933524;29;20231;-68
2022/08/21 05:48:07;;;;;;;10.40;6.03;;;;;;;22.70;99.88;98481.81;4933372;29;20209;-68
2022/08/21 05:50:33;;;;;;;9.70;5.67;;;;;;;22.88;97.72;98483.00;4933615;29;20287;-69
2022/08/21 05:53:02;;;;;;;11.50;5.30;;;;;;;23.06;97.53;98480.53;4933335;29;20201;-68
2022/08/21 05:55:29;;;;;;;11.20;5.67;;;;;;;23.20;96.05;98471.66;4933336;29;20219;-68
2022/08/21 05:57:56;;;;;;;11.93;5.85;;;;;;;23.52;99.31;98479.53;4933351;29;20215;-69
2022/08/21 06:00:23;;;;;;;9.95;4.97;;;;;;;23.64;98.12;98477.88;4933309;29;20243;-68
2022/08/21 06:02:50;;;;;;;8.98;4.60;;;;;;;23.78;96.39;98480.44;4933425;29;20199;-69
2022/08/21 06:05:18;;;;;;;6.40;3.88;;;;;;;23.85;95.81;98479.38;4933079;29;20286;-69
2022/08/21 06:07:44;;;;;;;6.72;4.40;;;;;;;23.90;94.87;98482.16;4933580;29;20218;-68
2022/08/21 06:10:13;;;;;;;5.10;4.03;;;;;;;23.92;93.52;98485.34;4933183;29;20223;-68
2022/08/21 06:12:40;;;;;;;6.38;3.90;;;;;;;23.95;93.59;98478.91;4933055;29;20204;-68
2022/08/21 06:15:08;;;;;;;8.52;3.97;;;;;;;23.94;93.42;98487.75;4933044;29;20230;-69
2022/08/21 06:17:35;;;;;;;7.22;4.45;;;;;;;23.83;92.93;98486.63;4933376;29;20203;-69
2022/08/21 06:20:02;;;;;;;6.72;3.95;;;;;;;23.92;92.80;98490.56;4932838;29;20247;-69
2022/08/21 06:22:29;;;;;;;6.05;3.80;;;;;;;24.06;94.01;98483.44;4932772;29;20203;-69
2022/08/21 06:24:56;;;;;;;5.82;4.10;;;;;;;24.11;91.69;98488.00;4932868;29;20224;-67
2022/08/21 06:27:24;;;;;;;5.78;3.90;;;;;;;24.10;90.31;98484.59;4932905;29;20207;-67
2022/08/21 06:29:51;;;;;;;10.27;4.50;;;;;;;24.09;89.49;98485.63;4932910;29;20219;-68
2022/08/21 06:32:18;;;;;;;6.47;4.22;;;;;;;24.09;87.95;98500.50;4932966;29;20211;-69
2022/08/21 06:34:45;;;;;;;7.75;4.05;;;;;;;24.06;86.24;98500.94;4932455;29;20226;-69
2022/08/21 06:37:11;;;;;;;6.88;4.05;;;;;;;24.07;87.20;98498.09;4932731;29;20214;-69
2022/08/21 06:39:39;;;;;;;9.07;4.93;;;;;;;24.26;86.54;98500.75;4931675;29;20705;-68
2022/08/21 06:42:06;;;;;;;8.70;4.78;;;;;;;24.51;83.96;98501.56;4932523;29;20215;-68
2022/08/21 06:44:34;;;;;;;9.18;4.88;;;;;;;24.60;83.85;98502.91;4932541;29;20203;-69
2022/08/21 06:47:01;;;;;;;5.97;3.95;;;;;;;24.79;81.64;98508.16;4932693;29;20603;-69
2022/08/21 06:49:28;;;;;;;7.80;4.00;;;;;;;25.23;82.74;98522.00;4932247;29;20224;-68
2022/08/21 06:51:54;;;;;;;8.32;4.13;;;;;;;25.75;84.44;98517.91;4932744;29;20211;-69
2022/08/21 06:54:22;;;;;;;4.68;3.25;;;;;;;26.00;77.97;98510.91;4932222;29;20215;-68
2022/08/21 06:56:48;;;;;;;5.32;3.63;;;;;;;26.40;77.56;98511.88;4932398;29;20215;-69
2022/08/21 06:59:15;;;;;;;4.15;3.13;;;;;;;26.23;72.98;98520.66;4932441;29;20199;-68
2022/08/21 07:01:44;;;;;;;4.25;3.03;;;;;;;26.23;75.53;98529.31;4932234;29;20239;-68
2022/08/21 07:04:11;;;;;;;4.80;3.47;;;;;;;26.38;78.06;98519.19;4932324;29;20200;-68
2022/08/21 07:06:38;;;;;;;5.68;3.42;;;;;;;26.52;77.80;98532.88;4932440;29;20245;-69
2022/08/21 07:09:04;;;;;;;5.50;3.10;;;;;;;26.64;77.07;98522.41;4932025;29;20251;-68
2022/08/21 07:11:31;;;;;;;5.25;2.80;;;;;;;26.55;75.38;98531.63;4932172;29;20234;-68
2022/08/21 07:13:58;;;;;;;3.63;2.95;;;;;;;26.49;75.58;98525.44;4931912;29;20215;-69
2022/08/21 07:16:25;;;;;;;5.00;3.40;;;;;;;26.50;74.56;98534.13;4932234;29;20220;-68
2022/08/21 07:18:54;;;;;;;3.78;2.88;;;;;;;26.40;75.67;98532.84;4932095;29;20212;-69
2022/08/21 07:21:21;;;;;;;5.47;3.40;;;;;;;26.26;74.90;98534.09;4932433;29;20243;-69
2022/08/21 07:23:49;;;;;;;3.70;3.10;;;;;;;26.30;77.78;98529.22;4932068;29;20214;-60
2022/08/21 07:26:18;;;;;;;4.57;3.35;;;;;;;26.45;75.63;98534.00;4931913;29;20243;-59
2022/08/21 07:28:45;;;;;;;5.93;3.60;;;;;;;26.80;75.11;98532.22;4931785;29;20203;-59
2022/08/21 07:31:15;;;;;;;4.28;3.15;;;;;;;26.90;73.40;98530.81;4931959;29;20223;-60
2022/08/21 07:33:42;;;;;;;5.28;3.40;;;;;;;27.31;72.15;98528.03;4931998;29;20207;-59
2022/08/21 07:36:10;;;;;;;5.00;3.42;;;;;;;27.33;70.47;98527.00;4931971;29;20302;-60
2022/08/21 07:38:37;;;;;;;13.45;5.10;;;;;;;27.87;72.35;98524.88;4932091;29;20219;-59
2022/08/21 07:41:11;;;;;;;6.35;3.65;;;;;;;28.02;69.51;98517.22;4931954;29;20242;-60
2022/08/21 07:43:38;;;;;;;6.32;3.85;;;;;;;28.35;71.67;98515.63;4932023;29;20440;-60
2022/08/21 07:46:05;;;;;;;4.45;3.38;;;;;;;28.74;70.71;98515.66;4931694;29;20306;-60
2022/08/21 07:48:33;;;;;;;5.38;3.60;;;;;;;28.83;68.78;98519.50;4931780;29;20208;-60
2022/08/21 07:51:03;;;;;;;5.78;3.10;;;;;;;28.94;72.67;98508.03;4933346;29;20728;-60
2022/08/21 07:53:31;;;;;;;5.20;3.33;;;;;;;29.32;62.73;98509.03;4935475;29;20713;-60
2022/08/21 07:55:58;;;;;;;4.20;3.08;;;;;;;29.71;64.19;98506.31;4935805;29;20231;-60
2022/08/21 07:58:25;;;;;;;4.80;3.38;;;;;;;30.00;62.67;98510.25;4935423;29;20204;-60
2022/08/21 08:00:52;;;;;;;5.43;3.40;;;;;;;29.83;61.11;98509.56;4935570;29;20243;-60
2022/08/21 08:03:19;;;;;;;4.15;3.28;;;;;;;29.55;57.86;98508.78;4935486;29;20698;-60
2022/08/21 08:05:45;;;;;;;4.43;2.90;;;;;;;29.37;62.92;98511.72;4935409;29;20239;-60
2022/08/21 08:08:12;;;;;;;4.80;3.20;;;;;;;29.17;62.97;98511.50;4935288;29;20666;-60
2022/08/21 08:10:40;;;;;;;3.83;3.10;;;;;;;29.07;64.06;98507.72;4935292;29;20227;-60
2022/08/21 08:13:07;;;;;;;4.90;3.10;;;;;;;28.93;61.57;98505.66;4935276;29;20214;-60
2022/08/21 08:15:35;;;;;;;3.50;2.90;;;;;;;28.74;61.80;98511.22;4935314;29;20223;-60
2022/08/21 08:18:01;;;;;;;4.68;2.67;;;;;;;28.64;63.53;98509.25;4935501;29;20211;-60
2022/08/21 08:20:29;;;;;;;4.25;2.85;;;;;;;28.50;63.22;98502.72;4934987;29;20248;-61
2022/08/21 08:22:57;;;;;;;5.18;3.08;;;;;;;28.21;64.33;98508.06;4935126;29;20231;-59
2022/08/21 08:25:25;;;;;;;5.22;3.13;;;;;;;28.32;65.32;98508.22;4935089;29;20231;-60
2022/08/21 08:27:54;;;;;;;3.88;2.90;;;;;;;27.95;63.48;98503.44;4934995;29;20565;-60
2022/08/21 08:30:23;;;;;;;3.45;2.58;;;;;;;27.84;63.43;98505.13;4935270;29;20220;-60
2022/08/21 08:32:50;;;;;;;3.60;2.60;;;;;;;27.83;64.80;98502.72;4934903;29;20218;-61
2022/08/21 08:35:17;;;;;;;4.55;2.85;;;;;;;27.72;65.47;98497.28;4934765;29;20453;-61
2022/08/21 08:37:45;;;;;;;3.85;2.90;;;;;;;27.70;64.91;98499.31;4935328;29;20212;-60
2022/08/21 08:40:15;;;;;;;5.00;3.13;;;;;;;27.59;65.36;98500.19;4934834;29;20885;-60
2022/08/21 08:42:42;;;;;;;4.88;2.70;;;;;;;27.69;66.39;98491.66;4934884;29;20204;-60
2022/08/21 08:45:14;;;;;;;4.20;3.22;;;;;;;27.72;67.65;98502.53;4934996;29;20247;-60
2022/08/21 08:47:45;;;;;;;5.20;2.92;;;;;;;27.68;65.47;98490.09;4935230;29;20595;-60
2022/08/21 08:50:17;;;;;;;4.25;3.17;;;;;;;27.62;65.82;98491.81;4934325;29;20223;-61
2022/08/21 08:52:50;;;;;;;6.70;3.55;;;;;;;27.52;67.49;98491.66;4934632;29;20219;-60
2022/08/21 08:55:21;;;;;;;4.63;2.92;;;;;;;27.49;65.52;98492.13;4934408;29;20234;-61
2022/08/21 08:57:50;;;;;;;4.10;3.28;;;;;;;27.55;66.44;98485.94;4934508;29;20208;-61
2022/08/21 09:00:21;;;;;;;5.25;3.38;;;;;;;27.58;66.27;98489.91;4934351;29;20709;-61
2022/08/21 09:02:52;;;;;;;4.78;3.17;;;;;;;27.31;66.30;98496.53;4933343;29;20206;-61
2022/08/21 09:05:27;;;;;;;5.95;3.25;;;;;;;27.22;66.38;98487.41;4934108;29;20717;-60
2022/08/21 09:08:14;;;;;;;3.88;2.78;;;;;;;27.19;68.27;98481.84;4934840;29;20211;-61
2022/08/21 09:10:52;;;;;;;4.85;3.40;;;;;;;27.12;66.48;98484.59;4931836;29;20219;-60
2022/08/21 09:13:25;;;;;;;4.97;3.10;;;;;;;27.21;69.96;98480.59;4934072;29;20656;-60
2022/08/21 09:16:04;;;;;;;4.53;3.22;;;;;;;27.09;65.49;98482.44;4915333;29;20689;-60
2022/08/21 09:18:43;;;;;;;4.72;3.10;;;;;;;26.99;65.74;98484.84;4933687;29;20259;-60
2022/08/21 09:21:17;;;;;;;3.58;2.70;;;;;;;27.17;69.56;98479.47;4934069;29;20793;-60
2022/08/21 09:23:54;;;;;;;4.60;3.15;;;;;;;27.31;67.22;98472.91;4934354;29;20584;-60
2022/08/21 09:26:24;;;;;;;4.07;3.20;;;;;;;27.28;67.02;98472.56;4933957;29;20625;-60
2022/08/21 09:28:54;;;;;;;3.95;3.13;;;;;;;27.28;66.86;98465.47;4933907;29;20211;-60
2022/08/21 09:31:27;;;;;;;4.38;3.03;;;;;;;27.48;67.29;98474.78;4934375;29;20227;-60
2022/08/21 09:33:59;;;;;;;4.07;3.17;;;;;;;27.22;66.34;98469.03;4933784;29;20216;-60
2022/08/21 09:36:36;;;;;;;3.47;2.90;;;;;;;27.11;66.54;98469.84;4933902;29;20621;-64
2022/08/21 09:39:04;;;;;;;4.55;3.25;;;;;;;27.28;66.57;98467.31;4933455;29;20207;-62
2022/08/21 09:41:35;;;;;;;5.97;3.35;;;;;;;27.38;66.58;98464.09;4933834;29;20243;-60
2022/08/21 09:44:02;;;;;;;6.00;3.30;;;;;;;27.54;65.52;98460.69;4933589;29;20207;-59
2022/08/21 09:46:31;;;;;;;4.20;3.10;;;;;;;27.67;67.84;98460.41;4933892;29;20626;-63
2022/08/21 09:49:00;;;;;;;4.68;2.80;;;;;;;27.81;67.75;98468.81;4933332;29;20208;-64
2022/08/21 09:51:29;;;;;;;3.60;2.83;;;;;;;27.91;65.36;98462.91;4933634;29;20238;-63
2022/08/21 09:54:01;;;;;;;4.25;3.25;;;;;;;27.98;65.46;98463.53;4932562;29;20210;-61
2022/08/21 09:59:20;;;;;;;3.70;3.08;;;;;;;28.06;62.67;98457.09;4933411;29;20708;-58
2022/08/21 10:01:50;;;;;;;6.43;3.45;;;;;;;27.98;61.94;98453.84;4933451;29;20250;-61
2022/08/21 10:04:22;;;;;;;5.55;3.08;;;;;;;27.96;65.53;98444.63;4933004;29;20204;-61
2022/08/21 10:06:49;;;;;;;10.23;5.50;;;;;;;27.89;63.30;98441.34;4933653;29;20216;-60
2022/08/21 10:09:19;;;;;;;6.88;3.60;;;;;;;27.95;63.80;98443.00;4932981;29;20284;-61
2022/08/21 10:11:53;;;;;;;13.85;7.50;;;;;;;27.95;63.37;98449.03;4933315;29;20299;-59
2022/08/21 10:14:42;;;;;;;8.45;4.95;;;;;;;28.02;63.03;98437.59;4932903;29;20213;-62
2022/08/21 10:17:19;;;;;;;4.47;3.10;;;;;;;28.03;60.36;98439.97;4933160;29;20219;-60
2022/08/21 10:19:58;;;;;;;40.60;20.75;;;;;;;27.96;58.78;98439.34;4932962;29;20599;-61
2022/08/21 10:22:37;;;;;;;7.72;4.93;;;;;;;27.82;59.32;98440.72;4933078;29;20234;-62
2022/08/21 10:25:14;;;;;;;25.00;11.48;;;;;;;27.72;57.88;98439.47;4931332;29;20234;-61
2022/08/21 10:27:50;;;;;;;7.32;3.70;;;;;;;27.56;57.78;98437.63;4931319;29;20227;-62
2022/08/21 10:30:27;;;;;;;5.10;2.88;;;;;;;27.45;58.91;98438.47;4932781;29;20246;-61
2022/08/21 10:33:06;;;;;;;6.25;4.03;;;;;;;27.57;61.69;98438.41;4933010;29;20258;-61
2022/08/21 10:35:38;;;;;;;3.15;2.50;;;;;;;27.58;60.39;98432.94;4932889;29;20227;-60
2022/08/21 10:38:38;;;;;;;4.55;3.40;;;;;;;27.64;58.50;98431.19;4932751;29;20207;-61
2022/08/21 10:41:12;;;;;;;3.42;2.80;;;;;;;27.68;62.35;98435.72;4932673;29;20255;-60
2022/08/21 10:43:52;;;;;;;3.63;2.88;;;;;;;27.73;61.21;98435.03;4932536;29;20195;-60
2022/08/21 10:46:30;;;;;;;3.75;2.42;;;;;;;27.73;60.86;98427.16;4932501;29;20242;-60
2022/08/21 10:49:06;;;;;;;8.75;4.18;;;;;;;27.75;59.85;98423.25;4932757;29;20203;-62
2022/08/21 10:51:41;;;;;;;31.45;12.45;;;;;;;27.71;59.67;98414.22;4932984;29;20227;-60
2022/08/21 10:54:18;;;;;;;14.50;6.65;;;;;;;27.76;59.64;98422.19;4931748;29;20199;-62
2022/08/21 10:56:48;;;;;;;5.40;3.50;;;;;;;27.84;59.24;98410.53;4930758;29;20226;-62
2022/08/21 10:59:27;;;;;;;3.38;2.55;;;;;;;27.79;57.60;98413.09;4930507;29;20208;-61
2022/08/21 11:02:00;;;;;;;3.35;2.35;;;;;;;27.92;62.38;98406.69;4930588;29;20230;-61
2022/08/21 11:04:36;;;;;;;5.05;2.63;;;;;;;27.91;58.23;98405.91;4932165;29;20211;-61
2022/08/21 11:07:07;;;;;;;3.72;2.63;;;;;;;27.84;61.42;98410.53;4932489;29;20219;-60
2022/08/21 11:09:34;;;;;;;4.95;2.53;;;;;;;27.70;58.68;98404.78;4932288;29;20215;-62
2022/08/21 11:12:07;;;;;;;3.50;2.17;;;;;;;27.71;60.14;98406.34;4932427;29;20474;-63
2022/08/21 11:14:42;;;;;;;3.30;2.55;;;;;;;27.61;58.80;98406.22;4932199;29;20196;-64
2022/08/21 11:17:12;;;;;;;4.72;2.78;;;;;;;27.76;59.37;98403.81;4932418;29;20203;-63
2022/08/21 11:19:49;;;;;;;4.38;2.85;;;;;;;27.90;59.47;98399.06;4932004;29;20727;-67
2022/08/21 11:22:24;;;;;;;3.75;2.63;;;;;;;28.02;61.02;98385.06;4932045;29;20317;-66
2022/08/21 11:24:59;;;;;;;5.05;2.67;;;;;;;28.13;60.21;98387.56;4931286;29;20231;-66
2022/08/21 11:27:33;;;;;;;3.33;2.47;;;;;;;28.08;57.56;98384.09;4932095;29;20203;-66
2022/08/21 11:30:01;;;;;;;3.38;2.47;;;;;;;28.09;60.36;98391.72;4931851;29;20230;-65
2022/08/21 11:33:07;;;;;;;3.97;2.83;;;;;;;27.97;59.72;98381.28;4932054;29;20207;-68
2022/08/21 11:35:45;;;;;;;6.57;4.35;;;;;;;27.63;67.61;98377.84;4932259;29;20219;-68
2022/08/21 11:38:26;;;;;;;5.63;4.28;;;;;;;27.68;67.69;98374.53;4928962;29;20607;-66
2022/08/21 11:41:06;;;;;;;5.38;4.00;;;;;;;27.72;69.02;98363.31;4920184;29;20227;-67
2022/08/21 11:43:39;;;;;;;6.20;3.90;;;;;;;27.84;69.34;98365.06;4930061;29;20199;-66